KCHS/CHS METAR and TAF weather

Enter ICAO airport designator
Station Type Date Time Source
KCHS METAR 2022/05/26 04:56 UTC NOAA

KCHS 260456Z 10006KT 10SM FEW009 23/22 A3017 RMK AO2 SLP216 T02330217 402940194


Station Type Date Time Source
KCHS Decoded METAR 2022/05/26 04:56 UTC NOAA

CHARLESTON INT'L AIRPORT, SC, United States (KCHS) 32-54N 080-02W 13M
May 26, 2022 - 12:56 AM EDT / 2022.05.26 0456 UTC
Wind: from the E (100 degrees) at 7 MPH (6 KT):0
Visibility: 10 mile(s):0
Sky conditions: mostly clear
Temperature: 73.9 F (23.3 C)
Dew Point: 71.1 F (21.7 C)
Relative Humidity: 90%
Pressure (altimeter): 30.17 in. Hg (1021 hPa)
ob: KCHS 260456Z 10006KT 10SM FEW009 23/22 A3017 RMK AO2 SLP216 T02330217 402940194
cycle: 5

Station Type Date Time Source
KCHS TAF 2022/05/26 06:21 UTC NOAA

TAF KCHS 260520Z 2606/2706 09005KT P6SM SCT015 BKN035
TEMPO 2607/2611 BKN013
FM261400 15011KT P6SM BKN040
FM261700 16014G22KT P6SM SCT050 BKN250
FM262300 16008KT P6SM BKN050 BKN250

Example: see airport list